createdAt,value
2022-12-16T06:50:55.596Z,97.17
2022-12-16T06:51:25.579Z,97.11
2022-12-16T06:51:58.009Z,96.89
2022-12-16T06:52:30.443Z,97.17
2022-12-16T06:53:02.908Z,97.69
2022-12-16T06:53:35.686Z,97.91
2022-12-16T06:54:07.807Z,97.91
2022-12-16T06:54:40.302Z,98.22
2022-12-16T06:55:12.816Z,98.54
2022-12-16T06:55:45.323Z,98.75
2022-12-16T06:56:17.753Z,98.86
2022-12-16T06:56:50.197Z,99.07
2022-12-16T06:57:22.690Z,99.07
2022-12-16T06:57:55.138Z,98.86
2022-12-16T06:58:27.592Z,98.43
2022-12-16T06:59:00.380Z,98.22
2022-12-16T06:59:32.508Z,98.22
2022-12-16T07:00:04.934Z,98.43
2022-12-16T07:00:37.464Z,98.65
2022-12-16T07:01:10.094Z,98.86
2022-12-16T07:01:42.585Z,99.07
2022-12-16T07:02:15.041Z,98.96
2022-12-16T07:02:47.496Z,98.96
2022-12-16T07:03:28.045Z,98.75
2022-12-16T07:03:59.388Z,98.86
2022-12-16T07:04:31.782Z,98.54
2022-12-16T07:05:04.244Z,98.33
2022-12-16T07:05:36.708Z,98.75
2022-12-16T07:06:09.194Z,98.43
2022-12-16T07:06:41.691Z,98.22
2022-12-16T07:07:14.216Z,98.33
2022-12-16T07:07:46.736Z,98.43
2022-12-16T07:08:19.204Z,98.86
2022-12-16T07:08:51.731Z,98.96
2022-12-16T07:09:24.265Z,99.18
2022-12-16T07:09:56.701Z,99.18
2022-12-16T07:10:29.225Z,99.07
2022-12-16T07:11:15.284Z,98.86
2022-12-16T07:11:34.219Z,98.75
2022-12-16T07:12:06.846Z,98.86
2022-12-16T07:12:39.405Z,98.75
2022-12-16T07:13:12.001Z,98.75
2022-12-16T07:13:44.535Z,98.96
2022-12-16T07:14:17.019Z,99.18
2022-12-16T07:14:49.498Z,98.96
2022-12-16T07:15:21.950Z,98.75
2022-12-16T07:15:54.478Z,98.75
2022-12-16T07:16:27.002Z,98.65
2022-12-16T07:16:59.529Z,98.54
2022-12-16T07:17:32.053Z,98.43
2022-12-16T07:18:04.673Z,98.33
2022-12-16T07:18:37.148Z,98.33
2022-12-16T07:19:09.574Z,98.43
2022-12-16T07:19:42.050Z,98.43
2022-12-16T07:20:14.520Z,97.91
2022-12-16T07:20:47.133Z,97.49
2022-12-16T07:21:19.600Z,97.80
2022-12-16T07:21:52.117Z,98.01
2022-12-16T07:22:25.342Z,97.85
2022-12-16T07:23:06.141Z,97.31
2022-12-16T07:23:30.260Z,96.68
2022-12-16T07:24:02.675Z,95.84
2022-12-16T07:24:35.122Z,96.58
2022-12-16T07:25:07.578Z,97.63
2022-12-16T07:25:40.025Z,97.95
2022-12-16T07:26:12.585Z,97.63
2022-12-16T07:26:45.051Z,97.85
2022-12-16T07:27:17.841Z,98.16
2022-12-16T07:27:50.086Z,98.37
2022-12-16T07:28:22.536Z,98.90
2022-12-16T07:28:55.008Z,98.90
2022-12-16T07:29:27.495Z,98.90
2022-12-16T07:29:59.915Z,99.01
2022-12-16T07:30:32.416Z,99.22
2022-12-16T07:31:04.920Z,99.32
2022-12-16T07:31:37.476Z,99.11
2022-12-16T07:32:09.980Z,98.80
2022-12-16T07:32:42.457Z,98.48
2022-12-16T07:33:14.972Z,97.95
2022-12-16T07:33:47.483Z,97.31
2022-12-16T07:34:20.018Z,96.89
2022-12-16T07:34:52.506Z,96.89
2022-12-16T07:35:24.999Z,97.31
2022-12-16T07:35:57.519Z,97.53
2022-12-16T07:36:30.036Z,97.85
2022-12-16T07:37:02.520Z,98.06
2022-12-16T07:37:35.016Z,98.06
2022-12-16T07:38:07.510Z,98.06
2022-12-16T07:38:40.011Z,98.27
2022-12-16T07:39:12.536Z,97.85
2022-12-16T07:39:46.721Z,98.06
2022-12-16T07:40:17.406Z,98.43
2022-12-16T07:40:49.897Z,98.16
2022-12-16T07:41:22.396Z,98.27
2022-12-16T07:41:54.993Z,98.37
2022-12-16T07:42:27.423Z,98.69
2022-12-16T07:42:59.875Z,99.18
2022-12-16T07:43:32.561Z,99.28
2022-12-16T07:44:04.874Z,99.38
2022-12-16T07:44:37.469Z,99.49
2022-12-16T07:45:09.930Z,99.80
2022-12-16T07:45:45.324Z,99.70
2022-12-16T07:46:14.932Z,99.49
2022-12-16T07:46:47.400Z,99.80
2022-12-16T07:47:19.930Z,99.70
2022-12-16T07:47:52.468Z,99.80
2022-12-16T07:48:24.899Z,99.80
2022-12-16T07:48:57.342Z,99.60
2022-12-16T07:49:29.804Z,99.60
2022-12-16T07:50:02.278Z,99.18
2022-12-16T07:50:34.806Z,98.22
2022-12-16T07:51:07.247Z,97.49
2022-12-16T07:51:39.755Z,96.85
2022-12-16T07:52:12.270Z,96.43
2022-12-16T07:52:44.788Z,96.75
2022-12-16T07:53:17.337Z,96.75
2022-12-16T07:53:49.882Z,97.06
2022-12-16T07:54:22.420Z,97.17
2022-12-16T07:54:54.901Z,97.06
2022-12-16T07:55:27.335Z,97.38
2022-12-16T07:55:59.857Z,97.97
2022-12-16T07:56:32.482Z,98.28
2022-12-16T07:57:04.996Z,98.49
2022-12-16T07:57:37.525Z,98.49
2022-12-16T07:58:10.041Z,98.71
2022-12-16T07:58:42.548Z,98.81
2022-12-16T07:59:15.051Z,98.81
2022-12-16T07:59:47.538Z,98.71
2022-12-16T08:00:20.077Z,97.59
2022-12-16T08:00:52.604Z,96.85
2022-12-16T08:01:25.130Z,95.69
2022-12-16T08:01:57.579Z,94.53
2022-12-16T08:02:30.112Z,93.89
2022-12-16T08:03:02.579Z,93.30
2022-12-16T08:03:35.206Z,92.88
2022-12-16T08:04:07.420Z,92.99
2022-12-16T08:04:40.045Z,93.19
2022-12-16T08:05:12.553Z,93.09
2022-12-16T08:05:45.034Z,93.19
2022-12-16T08:06:17.643Z,92.77
2022-12-16T08:06:50.153Z,92.14
2022-12-16T08:07:22.585Z,91.55
2022-12-16T08:07:55.091Z,91.13
2022-12-16T08:08:27.501Z,91.13
2022-12-16T08:08:59.992Z,91.23
2022-12-16T08:09:32.553Z,91.44
2022-12-16T08:10:05.069Z,91.44
2022-12-16T08:10:37.555Z,91.23
2022-12-16T08:11:10.152Z,91.02
2022-12-16T08:11:42.693Z,90.91
2022-12-16T08:12:15.427Z,90.81
2022-12-16T08:12:48.548Z,90.84
2022-12-16T08:13:32.331Z,90.84
2022-12-16T08:13:53.552Z,90.95
2022-12-16T08:14:26.097Z,90.95
2022-12-16T08:14:58.610Z,91.06
2022-12-16T08:15:31.148Z,91.38
2022-12-16T08:16:03.683Z,91.80
2022-12-16T08:16:36.255Z,92.39
2022-12-16T08:17:08.779Z,92.82
2022-12-16T08:17:41.251Z,93.13
2022-12-16T08:18:13.734Z,93.45
2022-12-16T08:18:46.205Z,93.66
2022-12-16T08:19:18.742Z,93.93
2022-12-16T08:19:51.288Z,94.36
2022-12-16T08:20:23.791Z,94.78
2022-12-16T08:20:56.314Z,94.78
2022-12-16T08:21:28.845Z,94.57
2022-12-16T08:22:01.357Z,94.25
2022-12-16T08:22:33.865Z,94.04
2022-12-16T08:23:06.319Z,93.68
2022-12-16T08:23:38.791Z,93.26
2022-12-16T08:24:11.267Z,93.26
2022-12-16T08:24:46.912Z,93.09
2022-12-16T08:25:16.396Z,92.67
2022-12-16T08:25:48.886Z,92.52
2022-12-16T08:26:21.382Z,92.52
2022-12-16T08:26:53.922Z,92.52
2022-12-16T08:27:26.437Z,92.73
2022-12-16T08:27:58.898Z,92.83
2022-12-16T08:28:31.356Z,93.26
2022-12-16T08:29:27.138Z,94.00
2022-12-16T08:29:44.057Z,94.38
2022-12-16T08:30:08.832Z,94.70
2022-12-16T08:30:41.387Z,95.01
2022-12-16T08:31:13.905Z,94.38
2022-12-16T08:31:46.262Z,93.85
2022-12-16T08:32:18.718Z,94.06
2022-12-16T08:32:55.716Z,94.48
2022-12-16T08:33:23.585Z,94.70
2022-12-16T08:33:56.050Z,94.59
2022-12-16T08:34:28.566Z,93.85
2022-12-16T08:35:01.063Z,93.11
2022-12-16T08:35:33.551Z,92.58
2022-12-16T08:36:05.982Z,92.79
2022-12-16T08:36:38.439Z,93.11
2022-12-16T08:37:10.993Z,93.80
2022-12-16T08:37:43.469Z,94.12
2022-12-16T08:38:16.061Z,94.44
2022-12-16T08:38:48.638Z,94.97
2022-12-16T08:39:21.158Z,95.39
2022-12-16T08:40:11.045Z,95.03
2022-12-16T08:40:35.352Z,94.82
2022-12-16T08:40:58.676Z,95.14
2022-12-16T08:41:31.134Z,95.45
2022-12-16T08:42:03.571Z,95.45
2022-12-16T08:42:36.013Z,94.71
2022-12-16T08:43:12.653Z,93.66
2022-12-16T08:43:41.010Z,93.24
2022-12-16T08:44:13.534Z,93.24
2022-12-16T08:44:46.006Z,92.60
2022-12-16T08:45:18.520Z,92.18
2022-12-16T08:45:51.167Z,91.38
2022-12-16T08:46:23.591Z,90.75
2022-12-16T08:46:55.995Z,90.54
2022-12-16T08:47:28.500Z,90.54
2022-12-16T08:48:01.016Z,90.96
2022-12-16T08:48:33.485Z,91.38
2022-12-16T08:49:06.207Z,91.17
2022-12-16T08:49:38.627Z,90.96
2022-12-16T08:50:11.097Z,91.38
2022-12-16T08:50:43.531Z,91.70
2022-12-16T08:51:16.035Z,91.80
2022-12-16T08:51:48.572Z,92.02
2022-12-16T08:52:21.053Z,92.65
2022-12-16T08:52:53.509Z,93.38
2022-12-16T08:53:25.964Z,93.77
2022-12-16T08:53:58.407Z,93.98
2022-12-16T08:54:30.908Z,94.08
2022-12-16T08:55:03.384Z,94.19
2022-12-16T08:55:35.941Z,94.29
2022-12-16T08:56:08.398Z,94.29
2022-12-16T08:56:40.909Z,94.25
2022-12-16T08:57:13.407Z,94.19
2022-12-16T08:57:45.954Z,94.78
2022-12-16T08:58:18.453Z,95.09
2022-12-16T08:58:50.915Z,95.51
2022-12-16T08:59:23.432Z,95.83
2022-12-16T08:59:55.951Z,96.25
2022-12-16T09:00:28.474Z,96.21
2022-12-16T09:01:06.715Z,96.21
2022-12-16T09:01:33.658Z,96.63
2022-12-16T09:02:06.256Z,97.16
2022-12-16T09:02:38.904Z,97.47
2022-12-16T09:03:11.282Z,96.63
2022-12-16T09:03:43.618Z,95.68
2022-12-16T09:04:16.095Z,95.47
2022-12-16T09:04:48.456Z,95.05
2022-12-16T09:05:20.899Z,93.37
2022-12-16T09:05:53.395Z,92.14
2022-12-16T09:06:25.927Z,91.93
2022-12-16T09:06:58.430Z,92.35
2022-12-16T09:07:30.974Z,92.52
2022-12-16T09:08:03.464Z,92.67
2022-12-16T09:08:35.930Z,92.57
2022-12-16T09:09:08.428Z,92.99
2022-12-16T09:09:40.850Z,92.46
2022-12-16T09:10:13.350Z,92.35
2022-12-16T09:10:45.897Z,92.14
2022-12-16T09:11:18.450Z,92.03
2022-12-16T09:11:50.958Z,92.77
2022-12-16T09:12:23.477Z,93.37
2022-12-16T09:12:55.991Z,92.94
2022-12-16T09:13:28.522Z,93.73
2022-12-16T09:14:01.054Z,94.42
2022-12-16T09:14:33.540Z,95.05
2022-12-16T09:15:05.986Z,95.57
2022-12-16T09:15:38.498Z,95.47
2022-12-16T09:16:14.448Z,95.47
2022-12-16T09:16:43.435Z,94.73
2022-12-16T09:17:15.797Z,94.31
2022-12-16T09:17:48.238Z,93.30
2022-12-16T09:18:20.767Z,92.99
2022-12-16T09:18:53.257Z,93.51
2022-12-16T09:19:25.822Z,94.15
2022-12-16T09:19:58.339Z,94.73
2022-12-16T09:20:30.874Z,95.26
2022-12-16T09:21:03.363Z,95.05
2022-12-16T09:21:35.886Z,94.15
2022-12-16T09:22:08.346Z,93.30
2022-12-16T09:22:40.819Z,92.57
2022-12-16T09:23:13.307Z,92.46
2022-12-16T09:23:45.886Z,92.88
2022-12-16T09:24:18.423Z,93.09
2022-12-16T09:24:50.929Z,93.41
2022-12-16T09:25:23.418Z,93.51
2022-12-16T09:25:56.114Z,93.73
2022-12-16T09:26:28.525Z,94.15
2022-12-16T09:27:01.008Z,94.35
2022-12-16T09:27:33.472Z,94.25
2022-12-16T09:28:05.952Z,93.19
2022-12-16T09:28:38.487Z,93.51
2022-12-16T09:29:11.009Z,93.41
2022-12-16T09:29:45.054Z,93.62
2022-12-16T09:30:16.047Z,93.93
2022-12-16T09:30:48.559Z,94.15
2022-12-16T09:31:21.069Z,93.62
2022-12-16T09:31:53.456Z,92.67
2022-12-16T09:32:25.912Z,92.46
2022-12-16T09:32:58.369Z,92.35
2022-12-16T09:33:31.244Z,92.88
2022-12-16T09:34:03.389Z,93.41
2022-12-16T09:34:35.908Z,93.30
2022-12-16T09:35:13.325Z,92.88
2022-12-16T09:35:40.901Z,92.57
2022-12-16T09:36:13.448Z,91.83
2022-12-16T09:36:45.973Z,91.34
2022-12-16T09:37:18.432Z,91.24
2022-12-16T09:37:50.892Z,91.44
2022-12-16T09:38:23.367Z,91.24
2022-12-16T09:38:55.845Z,90.81
2022-12-16T09:39:28.358Z,90.50
2022-12-16T09:40:00.920Z,90.39
2022-12-16T09:40:33.407Z,90.39
2022-12-16T09:41:05.916Z,90.50
2022-12-16T09:41:42.898Z,90.50
2022-12-16T09:42:10.917Z,90.60
2022-12-16T09:42:43.432Z,90.92
2022-12-16T09:43:15.961Z,91.34
2022-12-16T09:43:48.522Z,91.34
2022-12-16T09:44:21.072Z,91.66
2022-12-16T09:44:53.584Z,91.66
2022-12-16T09:45:26.194Z,91.44
2022-12-16T09:45:58.751Z,91.66
2022-12-16T09:46:31.231Z,92.18
2022-12-16T09:47:08.210Z,92.60
2022-12-16T09:47:36.076Z,92.57
2022-12-16T09:48:08.570Z,92.57
2022-12-16T09:48:41.081Z,92.77
2022-12-16T09:49:13.600Z,93.19
2022-12-16T09:49:46.243Z,93.41
2022-12-16T09:50:18.762Z,93.62
2022-12-16T09:50:51.287Z,93.47
2022-12-16T09:51:23.866Z,93.47
2022-12-16T09:51:56.375Z,93.57
2022-12-16T09:52:28.918Z,93.89
2022-12-16T09:53:01.421Z,94.69
2022-12-16T09:53:34.318Z,95.01
2022-12-16T09:54:06.302Z,94.90
2022-12-16T09:54:38.820Z,94.80
2022-12-16T09:55:11.371Z,95.01
2022-12-16T09:55:43.945Z,95.32
2022-12-16T09:56:16.444Z,94.59
2022-12-16T09:56:48.887Z,93.64
2022-12-16T09:57:21.383Z,93.74
2022-12-16T09:57:53.825Z,93.74
2022-12-16T09:58:26.299Z,93.43
2022-12-16T09:58:58.756Z,93.43
2022-12-16T09:59:31.347Z,93.64
2022-12-16T10:00:03.840Z,94.17
2022-12-16T10:00:36.375Z,94.65
2022-12-16T10:01:08.897Z,94.23
2022-12-16T10:01:41.535Z,94.34
2022-12-16T10:02:13.930Z,94.44
2022-12-16T10:02:46.447Z,94.86
2022-12-16T10:03:18.905Z,95.39
2022-12-16T10:03:51.268Z,96.02
2022-12-16T10:04:23.682Z,96.12
2022-12-16T10:04:56.135Z,96.02
2022-12-16T10:05:28.725Z,95.81
2022-12-16T10:06:01.287Z,95.81
2022-12-16T10:06:33.758Z,95.81
2022-12-16T10:07:06.185Z,95.76
2022-12-16T10:07:38.656Z,95.55
2022-12-16T10:08:14.307Z,95.34
2022-12-16T10:08:43.628Z,95.24
2022-12-16T10:09:16.122Z,95.34
2022-12-16T10:09:48.643Z,95.34
2022-12-16T10:10:21.680Z,95.45
2022-12-16T10:10:54.061Z,94.92
2022-12-16T10:11:26.517Z,94.29
2022-12-16T10:11:58.962Z,93.76
2022-12-16T10:12:31.505Z,93.45
2022-12-16T10:13:04.614Z,93.66
2022-12-16T10:13:37.264Z,94.18
2022-12-16T10:14:11.165Z,94.40
2022-12-16T10:14:42.068Z,94.40
2022-12-16T10:15:14.532Z,94.18
2022-12-16T10:15:47.048Z,93.66
2022-12-16T10:16:19.540Z,93.66
2022-12-16T10:16:52.036Z,93.62
2022-12-16T10:17:24.588Z,93.83
2022-12-16T10:17:57.099Z,94.35
2022-12-16T10:18:29.694Z,94.35
2022-12-16T10:19:02.084Z,94.04
2022-12-16T10:19:34.561Z,93.72
2022-12-16T10:20:09.433Z,93.47
2022-12-16T10:20:39.566Z,93.37
2022-12-16T10:21:12.140Z,93.68
2022-12-16T10:21:44.637Z,93.89
2022-12-16T10:22:17.130Z,94.21
2022-12-16T10:22:49.633Z,94.37
2022-12-16T10:23:22.143Z,93.95
2022-12-16T10:23:54.596Z,93.22
2022-12-16T10:24:27.067Z,92.38
2022-12-16T10:24:59.598Z,91.96
2022-12-16T10:25:32.088Z,92.16
2022-12-16T10:26:04.586Z,92.48
2022-12-16T10:26:37.083Z,92.69
2022-12-16T10:27:09.628Z,92.38
2022-12-16T10:27:42.064Z,91.64
2022-12-16T10:28:14.537Z,91.18
2022-12-16T10:28:46.983Z,91.39
2022-12-16T10:29:20.432Z,91.18
2022-12-16T10:29:52.912Z,90.97
2022-12-16T10:30:25.347Z,90.97
2022-12-16T10:30:57.843Z,91.07
2022-12-16T10:31:31.821Z,91.18
2022-12-16T10:32:02.676Z,91.60
2022-12-16T10:32:35.125Z,91.81
2022-12-16T10:33:07.574Z,91.49
2022-12-16T10:33:40.025Z,90.97
2022-12-16T10:34:12.488Z,90.86
2022-12-16T10:34:44.935Z,91.18
2022-12-16T10:35:17.407Z,91.28
2022-12-16T10:35:49.838Z,90.97
2022-12-16T10:36:22.255Z,90.51
2022-12-16T10:36:54.810Z,90.19
2022-12-16T10:37:27.293Z,89.77
2022-12-16T10:37:59.791Z,89.35
2022-12-16T10:38:32.231Z,89.04
2022-12-16T10:39:04.668Z,89.14
2022-12-16T10:39:37.157Z,89.35
2022-12-16T10:40:09.636Z,89.25
2022-12-16T10:40:42.106Z,89.67
2022-12-16T10:41:14.519Z,89.98
2022-12-16T10:41:47.022Z,90.30
2022-12-16T10:42:19.529Z,90.72
2022-12-16T10:42:51.986Z,90.72
2022-12-16T10:43:25.089Z,90.51
2022-12-16T10:43:57.601Z,89.84
2022-12-16T10:44:30.123Z,89.21
2022-12-16T10:45:02.629Z,88.68
2022-12-16T10:45:35.109Z,88.16
2022-12-16T10:46:07.659Z,87.95
2022-12-16T10:46:40.192Z,87.84
2022-12-16T10:47:12.646Z,87.63
2022-12-16T10:47:45.152Z,87.52
2022-12-16T10:48:17.671Z,87.32
2022-12-16T10:48:56.545Z,87.21
2022-12-16T10:49:22.775Z,87.11
2022-12-16T10:49:55.339Z,87.32
2022-12-16T10:50:27.696Z,87.63
2022-12-16T10:51:00.209Z,87.74
2022-12-16T10:51:32.706Z,88.05
2022-12-16T10:52:09.229Z,88.26
2022-12-16T10:52:37.768Z,88.57
2022-12-16T10:53:10.741Z,88.68
2022-12-16T10:53:43.163Z,88.79
2022-12-16T10:54:15.631Z,88.89
2022-12-16T10:54:48.079Z,89.00
2022-12-16T10:55:20.521Z,89.21
2022-12-16T10:55:52.986Z,89.42
2022-12-16T10:56:25.455Z,89.31
2022-12-16T10:56:57.963Z,89.31
2022-12-16T10:57:30.457Z,89.21
2022-12-16T10:58:02.945Z,89.10
2022-12-16T10:58:35.937Z,89.06
2022-12-16T10:59:08.022Z,89.27
2022-12-16T10:59:40.498Z,89.48
2022-12-16T11:00:12.977Z,89.17
2022-12-16T11:00:45.418Z,88.75
2022-12-16T11:01:17.974Z,88.64
2022-12-16T11:01:50.477Z,88.54
2022-12-16T11:02:22.942Z,88.54
2022-12-16T11:02:55.463Z,88.43
2022-12-16T11:03:27.855Z,87.97
2022-12-16T11:04:00.234Z,87.66
2022-12-16T11:04:32.636Z,87.45
2022-12-16T11:05:05.116Z,87.34
2022-12-16T11:05:37.553Z,87.13
2022-12-16T11:06:10.055Z,86.92
2022-12-16T11:06:42.570Z,86.82
2022-12-16T11:07:15.109Z,86.82
2022-12-16T11:07:47.600Z,86.92
2022-12-16T11:08:20.094Z,87.24
2022-12-16T11:08:52.591Z,87.55
2022-12-16T11:09:25.191Z,87.76
2022-12-16T11:09:57.645Z,87.76
2022-12-16T11:10:30.120Z,87.87
2022-12-16T11:11:02.671Z,88.07
2022-12-16T11:11:35.181Z,88.18
2022-12-16T11:12:07.688Z,87.83
2022-12-16T11:12:40.255Z,87.41
2022-12-16T11:13:12.742Z,87.09
2022-12-16T11:13:45.226Z,87.03
2022-12-16T11:14:17.697Z,86.99
2022-12-16T11:15:12.586Z,86.88
2022-12-16T11:15:29.907Z,86.99
2022-12-16T11:15:55.616Z,87.41
2022-12-16T11:16:27.778Z,87.93
2022-12-16T11:17:00.220Z,88.04
2022-12-16T11:17:32.711Z,88.35
2022-12-16T11:18:05.211Z,88.77
2022-12-16T11:18:37.696Z,89.19
2022-12-16T11:19:10.241Z,89.29
2022-12-16T11:19:42.753Z,89.19
2022-12-16T11:20:15.237Z,89.19
2022-12-16T11:20:47.767Z,89.29
2022-12-16T11:21:20.260Z,89.29
2022-12-16T11:21:52.754Z,89.19
2022-12-16T11:22:25.192Z,89.19
2022-12-16T11:22:57.715Z,89.25
2022-12-16T11:23:30.424Z,89.57
2022-12-16T11:24:02.761Z,89.98
2022-12-16T11:24:35.263Z,90.20
2022-12-16T11:25:07.781Z,90.20
2022-12-16T11:25:40.292Z,90.30
2022-12-16T11:26:12.802Z,90.41
2022-12-16T11:26:45.297Z,90.51
2022-12-16T11:27:17.806Z,90.47
2022-12-16T11:27:50.234Z,90.58
2022-12-16T11:28:22.672Z,90.47
2022-12-16T11:28:55.195Z,90.47
2022-12-16T11:29:27.709Z,90.78
2022-12-16T11:30:00.201Z,90.68
2022-12-16T11:30:32.759Z,89.53
2022-12-16T11:31:05.304Z,88.48
2022-12-16T11:31:37.828Z,87.96
2022-12-16T11:32:10.127Z,88.17
2022-12-16T11:32:42.569Z,88.37
2022-12-16T11:33:15.024Z,88.48
2022-12-16T11:33:47.524Z,88.48
2022-12-16T11:34:20.030Z,88.48
2022-12-16T11:34:52.596Z,88.90
2022-12-16T11:35:25.081Z,89.32
2022-12-16T11:35:57.555Z,89.73
2022-12-16T11:36:30.045Z,89.53
2022-12-16T11:37:02.510Z,89.00
2022-12-16T11:37:34.957Z,88.59
2022-12-16T11:38:07.466Z,88.37
2022-12-16T11:38:39.868Z,88.27
2022-12-16T11:39:12.333Z,88.17
2022-12-16T11:39:44.799Z,88.06
2022-12-16T11:40:17.312Z,88.12
2022-12-16T11:40:49.816Z,88.12
2022-12-16T11:41:22.391Z,88.23
2022-12-16T11:41:54.931Z,88.12
2022-12-16T11:42:27.448Z,88.02
2022-12-16T11:43:06.421Z,87.60
2022-12-16T11:43:32.725Z,87.29
2022-12-16T11:44:04.925Z,87.08
2022-12-16T11:44:37.438Z,86.98
2022-12-16T11:45:09.907Z,86.98
2022-12-16T11:45:42.380Z,87.18
2022-12-16T11:46:14.958Z,87.18
2022-12-16T11:46:47.454Z,87.08
2022-12-16T11:47:19.831Z,86.98
2022-12-16T11:47:52.567Z,87.50
2022-12-16T11:48:24.920Z,88.40
2022-12-16T11:48:57.418Z,89.03
2022-12-16T11:49:29.928Z,88.82
2022-12-16T11:50:02.490Z,88.19
2022-12-16T11:50:34.996Z,88.29
2022-12-16T11:51:07.493Z,89.65
2022-12-16T11:51:40.030Z,90.49
2022-12-16T11:52:35.433Z,90.91
2022-12-16T11:52:44.883Z,90.91
2022-12-16T11:53:17.394Z,91.18
2022-12-16T11:53:49.871Z,90.97
2022-12-16T11:54:22.329Z,90.87
2022-12-16T11:54:54.754Z,90.87
2022-12-16T11:55:48.012Z,90.66
2022-12-16T11:56:11.181Z,90.03
2022-12-16T11:56:32.146Z,89.83
2022-12-16T11:57:04.571Z,89.83
2022-12-16T11:57:37.007Z,89.72
2022-12-16T11:58:09.469Z,89.30
2022-12-16T11:58:41.915Z,88.46
2022-12-16T11:59:14.409Z,87.94
2022-12-16T11:59:46.924Z,87.84
2022-12-16T12:00:19.395Z,87.84
2022-12-16T12:00:51.909Z,87.84
2022-12-16T12:01:24.476Z,87.84
2022-12-16T12:01:56.993Z,87.42
2022-12-16T12:02:29.509Z,87.10
2022-12-16T12:03:02.032Z,87.31
2022-12-16T12:03:34.845Z,87.42
2022-12-16T12:04:07.071Z,87.31
2022-12-16T12:04:39.452Z,87.31
2022-12-16T12:05:11.927Z,87.42
2022-12-16T12:05:44.378Z,87.21
2022-12-16T12:06:16.859Z,87.17
2022-12-16T12:06:49.371Z,87.63
2022-12-16T12:07:21.877Z,87.73
2022-12-16T12:07:55.475Z,87.73
2022-12-16T12:08:26.762Z,87.84
2022-12-16T12:08:59.215Z,87.73
2022-12-16T12:09:31.697Z,87.42
2022-12-16T12:10:04.206Z,87.52
2022-12-16T12:10:36.700Z,87.63
2022-12-16T12:11:09.236Z,87.69
2022-12-16T12:11:41.731Z,87.69
2022-12-16T12:12:14.226Z,87.69
2022-12-16T12:12:46.724Z,87.69
2022-12-16T12:13:19.216Z,87.69
2022-12-16T12:13:51.714Z,87.69
2022-12-16T12:14:24.292Z,87.48
2022-12-16T12:14:56.737Z,86.96
2022-12-16T12:15:29.193Z,86.85
2022-12-16T12:16:01.628Z,86.75
2022-12-16T12:16:34.086Z,87.07
2022-12-16T12:17:06.497Z,87.38
2022-12-16T12:17:38.954Z,87.59
2022-12-16T12:18:11.400Z,87.90
2022-12-16T12:18:43.905Z,87.80
2022-12-16T12:19:16.341Z,87.69
2022-12-16T12:19:48.802Z,87.69
2022-12-16T12:20:21.328Z,87.69
2022-12-16T12:20:53.847Z,87.80
2022-12-16T12:21:26.289Z,88.01
2022-12-16T12:21:58.816Z,88.32
2022-12-16T12:22:31.327Z,88.21
2022-12-16T12:23:03.855Z,87.80
2022-12-16T12:23:36.728Z,87.27
2022-12-16T12:24:08.920Z,87.38
2022-12-16T12:24:41.405Z,87.90
2022-12-16T12:25:13.865Z,88.21
2022-12-16T12:25:46.306Z,88.64
2022-12-16T12:26:18.858Z,88.64
2022-12-16T12:26:51.396Z,88.74
2022-12-16T12:27:23.923Z,88.32
2022-12-16T12:27:56.403Z,88.11
2022-12-16T12:28:28.843Z,87.90
2022-12-16T12:29:01.367Z,88.01
2022-12-16T12:29:33.898Z,87.76
2022-12-16T12:30:08.366Z,87.65
2022-12-16T12:30:38.793Z,87.65
2022-12-16T12:31:11.354Z,87.96
2022-12-16T12:31:43.913Z,88.28
2022-12-16T12:32:16.251Z,88.49
2022-12-16T12:32:48.700Z,88.90
2022-12-16T12:33:21.200Z,88.90
2022-12-16T12:33:53.688Z,88.80
2022-12-16T12:34:26.134Z,88.59
2022-12-16T12:34:58.580Z,88.59
2022-12-16T12:35:31.121Z,88.59
2022-12-16T12:36:03.620Z,88.59
2022-12-16T12:36:38.047Z,88.80
2022-12-16T12:37:08.515Z,89.11
2022-12-16T12:37:40.925Z,89.11
2022-12-16T12:38:13.465Z,88.49
2022-12-16T12:38:45.969Z,87.34
2022-12-16T12:39:18.494Z,86.51
2022-12-16T12:39:51.017Z,86.29
2022-12-16T12:40:23.546Z,86.08
2022-12-16T12:40:56.044Z,85.98
2022-12-16T12:41:28.583Z,86.29
2022-12-16T12:42:01.095Z,86.92
2022-12-16T12:42:33.618Z,87.13
2022-12-16T12:43:06.148Z,87.13
2022-12-16T12:43:42.580Z,87.02
2022-12-16T12:44:11.189Z,86.92
2022-12-16T12:44:48.945Z,87.02
2022-12-16T12:45:16.235Z,87.34
2022-12-16T12:45:48.820Z,87.96
2022-12-16T12:46:21.298Z,88.17
2022-12-16T12:46:53.757Z,88.32
2022-12-16T12:47:26.186Z,88.17
2022-12-16T12:47:58.715Z,87.76
2022-12-16T12:48:31.286Z,87.34
2022-12-16T12:49:03.742Z,87.13
2022-12-16T12:49:36.176Z,87.07
2022-12-16T12:50:08.659Z,86.96
2022-12-16T12:50:41.117Z,87.27
2022-12-16T12:51:13.582Z,87.59
2022-12-16T12:51:46.056Z,87.90
2022-12-16T12:52:18.565Z,88.01
2022-12-16T12:52:51.117Z,88.01
2022-12-16T12:53:23.583Z,88.11
2022-12-16T12:53:56.041Z,88.11
2022-12-16T12:54:33.110Z,88.11
2022-12-16T12:55:01.031Z,88.01
2022-12-16T12:55:33.566Z,87.69
2022-12-16T12:56:06.049Z,87.48
2022-12-16T12:56:38.585Z,87.38
2022-12-16T12:57:11.055Z,87.23
2022-12-16T12:57:43.535Z,87.23
2022-12-16T12:58:16.008Z,87.45
2022-12-16T12:58:48.476Z,87.65
2022-12-16T12:59:21.002Z,87.76
2022-12-16T12:59:55.910Z,87.86
2022-12-16T13:00:26.323Z,87.45
2022-12-16T13:00:58.903Z,87.02
2022-12-16T13:01:31.528Z,86.92
2022-12-16T13:02:04.116Z,87.13
2022-12-16T13:02:36.423Z,87.65
2022-12-16T13:03:09.053Z,88.28
2022-12-16T13:03:41.423Z,88.39
2022-12-16T13:04:21.232Z,88.17
2022-12-16T13:04:53.743Z,87.76
2022-12-16T13:05:26.259Z,87.65
2022-12-16T13:05:58.798Z,87.86
2022-12-16T13:06:31.309Z,87.96
2022-12-16T13:07:03.849Z,87.34
2022-12-16T13:07:36.659Z,87.02
2022-12-16T13:08:09.230Z,87.13
2022-12-16T13:08:41.761Z,87.34
2022-12-16T13:09:14.328Z,87.76
2022-12-16T13:09:46.872Z,87.65
2022-12-16T13:10:19.473Z,87.40
2022-12-16T13:10:51.954Z,87.45
2022-12-16T13:11:24.448Z,87.30
2022-12-16T13:11:56.999Z,87.02
2022-12-16T13:12:29.449Z,86.82
2022-12-16T13:13:01.942Z,86.61
2022-12-16T13:13:34.925Z,86.40
2022-12-16T13:14:06.981Z,86.29
2022-12-16T13:14:39.586Z,86.40
2022-12-16T13:15:12.096Z,86.40
2022-12-16T13:15:44.645Z,86.77
2022-12-16T13:16:17.315Z,86.99
2022-12-16T13:16:49.706Z,87.30
2022-12-16T13:17:25.213Z,87.65
2022-12-16T13:17:54.748Z,87.86
2022-12-16T13:18:27.253Z,87.96
2022-12-16T13:19:00.070Z,87.96
2022-12-16T13:19:32.367Z,87.76
2022-12-16T13:20:04.825Z,87.51
2022-12-16T13:20:37.315Z,87.45
2022-12-16T13:21:09.826Z,87.40
2022-12-16T13:21:42.262Z,87.51
2022-12-16T13:22:14.755Z,87.61
2022-12-16T13:22:47.355Z,87.51
2022-12-16T13:23:19.926Z,87.40
2022-12-16T13:23:52.390Z,87.51
2022-12-16T13:24:24.933Z,87.51
2022-12-16T13:24:57.516Z,87.40
2022-12-16T13:25:30.040Z,87.09
2022-12-16T13:26:02.587Z,87.09
2022-12-16T13:26:35.102Z,87.30
2022-12-16T13:27:07.630Z,87.30
2022-12-16T13:27:40.387Z,87.19
2022-12-16T13:28:12.876Z,87.19
2022-12-16T13:28:45.323Z,87.30
2022-12-16T13:29:17.849Z,87.51
2022-12-16T13:29:50.302Z,87.71
2022-12-16T13:30:22.800Z,88.03
2022-12-16T13:30:55.321Z,87.71
2022-12-16T13:31:27.883Z,87.09
2022-12-16T13:32:00.621Z,86.77
2022-12-16T13:32:32.900Z,86.57
2022-12-16T13:33:05.393Z,86.77
2022-12-16T13:33:37.897Z,86.99
2022-12-16T13:34:10.343Z,87.19
2022-12-16T13:34:42.889Z,87.30
2022-12-16T13:35:15.392Z,87.40
2022-12-16T13:35:47.849Z,87.51
2022-12-16T13:36:20.450Z,87.30
2022-12-16T13:36:52.917Z,87.19
2022-12-16T13:37:30.995Z,87.19
2022-12-16T13:37:57.956Z,87.19
2022-12-16T13:38:30.477Z,87.09
2022-12-16T13:39:02.963Z,86.99
2022-12-16T13:39:35.461Z,86.88
2022-12-16T13:40:08.103Z,86.77
2022-12-16T13:40:40.683Z,86.77
2022-12-16T13:41:13.156Z,86.77
2022-12-16T13:41:45.691Z,86.99
2022-12-16T13:42:18.214Z,87.23
2022-12-16T13:42:50.780Z,87.40
2022-12-16T13:43:24.017Z,87.65
2022-12-16T13:43:55.888Z,87.86
2022-12-16T13:44:28.336Z,87.96
2022-12-16T13:45:00.896Z,87.96
2022-12-16T13:45:33.495Z,87.96
2022-12-16T13:46:06.079Z,87.86
2022-12-16T13:46:38.523Z,87.76
2022-12-16T13:47:11.007Z,87.76
2022-12-16T13:47:43.611Z,87.76
2022-12-16T13:48:16.121Z,87.76
2022-12-16T13:48:48.622Z,87.76
2022-12-16T13:49:23.514Z,87.65